createdAt,value
2019-01-04T00:00:41.794Z,103543.23
2019-01-04T00:01:47.003Z,103537.97
2019-01-04T00:02:51.981Z,103545.47
2019-01-04T00:03:56.911Z,103538.45
2019-01-04T00:05:01.823Z,103539.34
2019-01-04T00:06:06.943Z,103541.97
2019-01-04T00:07:12.464Z,103538.94
2019-01-04T00:08:17.709Z,103542.89
2019-01-04T00:09:22.594Z,103542.45
2019-01-04T00:10:27.476Z,103539.39
2019-01-04T00:11:32.441Z,103543.34
2019-01-04T00:12:37.334Z,103544.22
2019-01-04T00:13:42.317Z,103542.06
2019-01-04T00:14:48.014Z,103539.88
2019-01-04T00:15:52.894Z,103536.80
2019-01-04T00:16:58.178Z,103539.00
2019-01-04T00:18:03.050Z,103537.69
2019-01-04T00:19:08.038Z,103536.41
2019-01-04T00:20:12.991Z,103545.19
2019-01-04T00:21:18.025Z,103528.95
2019-01-04T00:22:22.914Z,103531.59
2019-01-04T00:23:27.954Z,103534.22
2019-01-04T00:24:32.859Z,103531.16
2019-01-04T00:25:38.119Z,103528.95
2019-01-04T00:26:43.023Z,103539.53
2019-01-04T00:27:48.561Z,103526.37
2019-01-04T00:28:53.861Z,103533.83
2019-01-04T00:29:59.072Z,103536.51
2019-01-04T00:31:04.308Z,103533.88
2019-01-04T00:32:09.272Z,103541.78
2019-01-04T00:33:14.475Z,103544.41
2019-01-04T00:34:19.428Z,103550.16
2019-01-04T00:35:24.662Z,103549.24
2019-01-04T00:36:29.670Z,103554.98
2019-01-04T00:37:34.862Z,103551.48
2019-01-04T00:38:40.799Z,103554.07
2019-01-04T00:39:46.344Z,103558.45
2019-01-04T00:40:51.634Z,103553.62
2019-01-04T00:41:56.644Z,103555.37
2019-01-04T00:43:01.592Z,103559.77
2019-01-04T00:44:06.564Z,103555.81
2019-01-04T00:45:11.775Z,103554.50
2019-01-04T00:46:16.752Z,103554.45
2019-01-04T00:47:21.774Z,103551.38
2019-01-04T00:48:26.760Z,103557.92
2019-01-04T00:49:31.685Z,103561.39
2019-01-04T00:50:36.723Z,103555.67
2019-01-04T00:51:41.804Z,103553.44
2019-01-04T00:52:46.765Z,103552.98
2019-01-04T00:53:51.794Z,103550.31
2019-01-04T00:55:01.351Z,103549.88
2019-01-04T00:56:47.234Z,103549.86
2019-01-04T00:58:00.235Z,103553.77
2019-01-04T00:59:39.159Z,103545.87
2019-01-04T01:01:14.122Z,103549.38
2019-01-04T01:02:54.759Z,103557.23
2019-01-04T01:04:37.979Z,103551.95
2019-01-04T01:06:41.865Z,103552.84
2019-01-04T01:08:14.098Z,103551.53
2019-01-04T01:10:30.060Z,103546.70
2019-01-04T01:12:06.080Z,103560.31
2019-01-04T01:13:47.869Z,103556.84
2019-01-04T01:15:42.869Z,103548.51
2019-01-04T01:17:02.321Z,103550.70
2019-01-04T01:19:03.198Z,103555.09
2019-01-04T01:20:37.513Z,103545.47
2019-01-04T01:22:24.924Z,103551.63
2019-01-04T01:24:06.608Z,103547.68
2019-01-04T01:26:10.436Z,103546.41
2019-01-04T01:27:55.224Z,103548.65
2019-01-04T01:29:43.214Z,103552.17
2019-01-04T01:31:35.422Z,103550.95
2019-01-04T01:32:50.343Z,103553.19
2019-01-04T01:34:31.998Z,103556.70
2019-01-04T01:36:02.950Z,103556.70
2019-01-04T01:37:53.136Z,103556.30
2019-01-04T01:39:46.379Z,103560.69
2019-01-04T01:41:20.437Z,103551.92
2019-01-04T01:43:01.318Z,103557.19
2019-01-04T01:44:39.143Z,103551.48
2019-01-04T01:46:20.951Z,103552.41
2019-01-04T01:47:43.523Z,103559.83
2019-01-04T01:49:34.079Z,103563.33
2019-01-04T01:51:17.233Z,103567.28
2019-01-04T01:52:26.498Z,103565.52
2019-01-04T01:53:44.761Z,103572.98
2019-01-04T01:54:49.663Z,103568.59
2019-01-04T01:55:54.618Z,103579.53
2019-01-04T01:56:59.512Z,103577.77
2019-01-04T01:58:04.425Z,103582.15
2019-01-04T01:59:09.328Z,103579.47
2019-01-04T02:00:14.765Z,103581.18
2019-01-04T02:01:19.768Z,103572.80
2019-01-04T02:02:24.921Z,103578.46
2019-01-04T02:03:29.814Z,103573.19
2019-01-04T02:04:34.703Z,103576.25
2019-01-04T02:05:39.681Z,103576.25
2019-01-04T02:06:44.569Z,103571.42
2019-01-04T02:07:49.450Z,103571.87
2019-01-04T02:08:54.362Z,103570.99
2019-01-04T02:09:59.333Z,103577.62
2019-01-04T02:11:04.292Z,103576.31
2019-01-04T02:12:09.318Z,103574.16
2019-01-04T02:13:14.207Z,103575.48
2019-01-04T02:14:19.670Z,103577.67
2019-01-04T02:15:24.551Z,103578.55
2019-01-04T02:16:29.560Z,103580.78
2019-01-04T02:17:34.531Z,103581.66
2019-01-04T02:18:39.419Z,103582.10
2019-01-04T02:19:44.402Z,103582.10
2019-01-04T02:20:49.362Z,103581.63
2019-01-04T02:21:54.492Z,103584.69
2019-01-04T02:22:59.395Z,103583.38
2019-01-04T02:24:04.282Z,103582.50
2019-01-04T02:25:09.436Z,103577.23
2019-01-04T02:26:14.419Z,103578.55
2019-01-04T02:27:19.304Z,103580.35
2019-01-04T02:28:24.434Z,103581.67
2019-01-04T02:29:29.317Z,103576.88
2019-01-04T02:30:34.232Z,103576.45
2019-01-04T02:31:39.129Z,103576.45
2019-01-04T02:32:44.318Z,103578.64
2019-01-04T02:33:49.448Z,103576.02
2019-01-04T02:34:54.354Z,103579.96
2019-01-04T02:35:59.255Z,103579.52
2019-01-04T02:37:04.223Z,103571.63
2019-01-04T02:38:09.120Z,103572.94
2019-01-04T02:39:14.010Z,103572.50
2019-01-04T02:40:18.921Z,103571.18
2019-01-04T02:41:24.073Z,103562.84
2019-01-04T02:42:28.994Z,103558.45
2019-01-04T02:43:34.969Z,103562.80
2019-01-04T02:44:39.843Z,103562.35
2019-01-04T02:45:44.737Z,103557.48
2019-01-04T02:46:49.649Z,103555.68
2019-01-04T02:47:54.798Z,103559.14
2019-01-04T02:48:59.711Z,103552.98
2019-01-04T02:50:05.230Z,103560.89
2019-01-04T02:51:10.122Z,103558.26
2019-01-04T02:52:15.038Z,103555.63
2019-01-04T02:53:19.926Z,103565.28
2019-01-04T02:54:24.813Z,103563.52
2019-01-04T02:55:29.724Z,103569.23
2019-01-04T02:56:34.632Z,103573.19
2019-01-04T02:57:39.794Z,103567.09
2019-01-04T02:58:44.689Z,103567.57
2019-01-04T02:59:49.628Z,103568.94
2019-01-04T03:00:54.840Z,103559.77
2019-01-04T03:01:59.736Z,103562.41
2019-01-04T03:03:05.036Z,103555.88
2019-01-04T03:04:09.929Z,103561.14
2019-01-04T03:05:14.903Z,103557.67
2019-01-04T03:06:19.967Z,103562.93
2019-01-04T03:07:24.862Z,103559.42
2019-01-04T03:08:30.041Z,103552.41
2019-01-04T03:09:34.924Z,103555.92
2019-01-04T03:10:40.056Z,103561.23
2019-01-04T03:11:44.940Z,103557.28
2019-01-04T03:12:49.826Z,103562.98
2019-01-04T03:13:54.994Z,103559.08
2019-01-04T03:15:00.247Z,103556.45
2019-01-04T03:16:05.213Z,103559.08
2019-01-04T03:17:10.166Z,103556.02
2019-01-04T03:18:15.060Z,103555.17
2019-01-04T03:19:20.049Z,103558.25
2019-01-04T03:20:24.942Z,103556.94
2019-01-04T03:21:29.835Z,103553.91
2019-01-04T03:22:34.727Z,103562.73
2019-01-04T03:23:39.939Z,103563.61
2019-01-04T03:24:45.114Z,103569.79
2019-01-04T03:25:50.080Z,103557.98
2019-01-04T03:26:55.255Z,103560.18
2019-01-04T03:28:00.388Z,103557.99
2019-01-04T03:29:05.523Z,103555.36
2019-01-04T03:30:10.614Z,103553.16
2019-01-04T03:31:15.486Z,103556.62
2019-01-04T03:32:20.374Z,103561.45
2019-01-04T03:33:25.509Z,103556.62
2019-01-04T03:34:30.405Z,103551.77
2019-01-04T03:35:35.325Z,103553.08
2019-01-04T03:36:40.214Z,103550.45
2019-01-04T03:37:45.125Z,103545.18
2019-01-04T03:38:50.028Z,103548.69
2019-01-04T03:39:54.992Z,103545.63
2019-01-04T03:41:00.132Z,103544.78
2019-01-04T03:42:05.107Z,103546.09
2019-01-04T03:43:10.323Z,103546.09
2019-01-04T03:44:15.223Z,103546.94
2019-01-04T03:45:20.200Z,103547.38
2019-01-04T03:46:25.988Z,103545.63
2019-01-04T03:47:30.890Z,103549.57
2019-01-04T03:48:35.788Z,103542.99
2019-01-04T03:49:40.679Z,103539.52
2019-01-04T03:50:45.576Z,103541.23
2019-01-04T03:51:50.488Z,103538.16
2019-01-04T03:52:55.399Z,103541.67
2019-01-04T03:54:00.512Z,103540.31
2019-01-04T03:55:05.648Z,103540.30
2019-01-04T03:56:10.845Z,103536.35
2019-01-04T03:57:15.776Z,103534.11
2019-01-04T03:58:20.678Z,103528.81
2019-01-04T03:59:25.567Z,103534.50
2019-01-04T04:00:30.534Z,103538.41
2019-01-04T04:01:35.415Z,103537.53
2019-01-04T04:02:40.836Z,103535.34
2019-01-04T04:03:45.725Z,103531.34
2019-01-04T04:04:50.896Z,103533.53
2019-01-04T04:05:55.893Z,103529.59
2019-01-04T04:07:01.060Z,103530.42
2019-01-04T04:08:06.049Z,103524.71
2019-01-04T04:09:11.014Z,103530.41
2019-01-04T04:10:15.893Z,103517.25
2019-01-04T04:11:20.865Z,103518.97
2019-01-04T04:12:25.768Z,103515.02
2019-01-04T04:13:30.673Z,103512.38
2019-01-04T04:14:35.582Z,103514.56
2019-01-04T04:15:40.492Z,103516.31
2019-01-04T04:16:45.411Z,103512.36
2019-01-04T04:17:50.556Z,103518.95
2019-01-04T04:18:55.461Z,103519.35
2019-01-04T04:20:00.346Z,103518.02
2019-01-04T04:21:05.242Z,103521.10
2019-01-04T04:22:11.411Z,103522.85
2019-01-04T04:23:16.304Z,103521.53
2019-01-04T04:24:21.213Z,103520.22
2019-01-04T04:25:26.124Z,103517.10
2019-01-04T04:26:31.289Z,103519.73
2019-01-04T04:27:36.450Z,103515.73
2019-01-04T04:28:41.363Z,103508.27
2019-01-04T04:29:46.510Z,103506.45
2019-01-04T04:30:51.677Z,103502.06
2019-01-04T04:31:56.818Z,103502.91
2019-01-04T04:33:01.968Z,103506.41
2019-01-04T04:34:06.877Z,103501.59
2019-01-04T04:35:11.787Z,103507.73
2019-01-04T04:36:16.702Z,103506.02
2019-01-04T04:37:21.603Z,103504.22
2019-01-04T04:38:26.496Z,103502.95
2019-01-04T04:39:31.396Z,103507.77
2019-01-04T04:40:36.301Z,103511.73
2019-01-04T04:41:41.210Z,103511.78
2019-01-04T04:42:46.111Z,103511.78
2019-01-04T04:43:51.070Z,103518.41
2019-01-04T04:44:56.210Z,103523.69
2019-01-04T04:46:01.203Z,103521.49
2019-01-04T04:47:06.090Z,103521.49
2019-01-04T04:48:10.985Z,103519.73
2019-01-04T04:49:15.978Z,103518.85
2019-01-04T04:50:20.901Z,103515.30
2019-01-04T04:51:25.800Z,103517.49
2019-01-04T04:52:30.708Z,103513.10
2019-01-04T04:53:36.025Z,103511.34
2019-01-04T04:54:40.973Z,103513.05
2019-01-04T04:55:45.887Z,103512.62
2019-01-04T04:56:50.795Z,103514.37
2019-01-04T04:57:55.686Z,103513.00
2019-01-04T04:59:00.578Z,103523.08
2019-01-04T05:00:06.251Z,103519.97
2019-01-04T05:01:11.137Z,103513.38
2019-01-04T05:02:16.044Z,103515.13
2019-01-04T05:03:20.939Z,103515.97
2019-01-04T05:04:25.918Z,103517.72
2019-01-04T05:05:30.805Z,103516.80
2019-01-04T05:06:35.711Z,103515.48
2019-01-04T05:07:40.610Z,103514.16
2019-01-04T05:08:45.494Z,103514.64
2019-01-04T05:09:50.393Z,103515.08
2019-01-04T05:10:55.324Z,103515.97
2019-01-04T05:12:00.233Z,103510.70
2019-01-04T05:13:05.144Z,103510.27
2019-01-04T05:14:10.027Z,103505.91
2019-01-04T05:15:14.930Z,103508.11
2019-01-04T05:16:19.821Z,103502.84
2019-01-04T05:17:24.719Z,103503.28
2019-01-04T05:18:29.623Z,103505.47
2019-01-04T05:19:34.525Z,103509.42
2019-01-04T05:20:39.424Z,103502.84
2019-01-04T05:21:44.312Z,103498.41
2019-01-04T05:22:49.468Z,103501.91
2019-01-04T05:23:54.629Z,103499.23
2019-01-04T05:24:59.542Z,103495.70
2019-01-04T05:26:04.443Z,103493.90
2019-01-04T05:27:09.400Z,103493.86
2019-01-04T05:28:14.366Z,103496.47
2019-01-04T05:29:19.272Z,103504.77
2019-01-04T05:30:24.411Z,103506.09
2019-01-04T05:31:29.292Z,103505.20
2019-01-04T05:32:34.181Z,103507.80
2019-01-04T05:33:39.086Z,103508.23
2019-01-04T05:34:44.238Z,103509.98
2019-01-04T05:35:49.457Z,103509.94
2019-01-04T05:36:54.346Z,103517.39
2019-01-04T05:37:59.311Z,103516.51
2019-01-04T05:39:05.605Z,103518.26
2019-01-04T05:40:10.590Z,103519.98
2019-01-04T05:41:15.480Z,103523.48
2019-01-04T05:42:20.630Z,103517.28
2019-01-04T05:43:25.547Z,103512.45
2019-01-04T05:44:30.437Z,103511.56
2019-01-04T05:45:35.423Z,103513.77
2019-01-04T05:46:40.314Z,103513.77
2019-01-04T05:47:45.718Z,103514.25
2019-01-04T05:48:50.614Z,103511.67
2019-01-04T05:49:55.813Z,103513.45
2019-01-04T05:51:00.730Z,103509.98
2019-01-04T05:52:11.061Z,103514.42
2019-01-04T05:53:16.962Z,103517.50
2019-01-04T05:54:21.848Z,103508.78
2019-01-04T05:55:26.740Z,103519.36
2019-01-04T05:56:31.894Z,103513.67
2019-01-04T05:57:36.798Z,103518.11
2019-01-04T05:58:41.682Z,103518.55
2019-01-04T05:59:46.865Z,103521.18
2019-01-04T06:00:51.763Z,103519.86
2019-01-04T06:01:56.743Z,103513.71
2019-01-04T06:03:01.634Z,103510.20
2019-01-04T06:04:06.767Z,103503.62
2019-01-04T06:05:11.668Z,103501.86
2019-01-04T06:06:16.580Z,103499.66
2019-01-04T06:07:21.725Z,103495.22
2019-01-04T06:08:26.624Z,103499.11
2019-01-04T06:09:31.528Z,103502.14
2019-01-04T06:10:36.567Z,103502.56
2019-01-04T06:11:41.455Z,103498.13
2019-01-04T06:12:46.366Z,103494.13
2019-01-04T06:13:51.278Z,103487.53
2019-01-04T06:14:56.178Z,103494.06
2019-01-04T06:16:01.369Z,103495.38
2019-01-04T06:17:06.252Z,103498.44
2019-01-04T06:18:11.175Z,103496.69
2019-01-04T06:19:16.058Z,103497.58
2019-01-04T06:20:20.960Z,103492.31
2019-01-04T06:21:25.853Z,103493.17
2019-01-04T06:22:30.745Z,103491.81
2019-01-04T06:23:35.654Z,103494.89
2019-01-04T06:24:40.860Z,103490.05
2019-01-04T06:25:45.752Z,103494.00
2019-01-04T06:26:50.639Z,103497.07
2019-01-04T06:27:55.561Z,103491.80
2019-01-04T06:29:00.474Z,103490.48
2019-01-04T06:30:06.001Z,103486.92
2019-01-04T06:31:10.932Z,103494.37
2019-01-04T06:32:16.117Z,103490.86
2019-01-04T06:33:21.256Z,103497.83
2019-01-04T06:34:26.176Z,103497.39
2019-01-04T06:35:31.133Z,103491.64
2019-01-04T06:36:36.511Z,103486.84
2019-01-04T06:37:41.395Z,103489.88
2019-01-04T06:38:46.390Z,103484.20
2019-01-04T06:39:51.295Z,103485.91
2019-01-04T06:40:56.273Z,103473.67
2019-01-04T06:42:01.156Z,103467.47
2019-01-04T06:43:06.067Z,103467.47
2019-01-04T06:44:10.948Z,103467.46
2019-01-04T06:45:16.089Z,103467.92
2019-01-04T06:46:20.981Z,103467.92
2019-01-04T06:47:25.881Z,103470.11
2019-01-04T06:48:30.801Z,103474.98
2019-01-04T06:49:35.696Z,103473.19
2019-01-04T06:50:40.869Z,103464.84
2019-01-04T06:51:45.866Z,103464.84
2019-01-04T06:52:50.762Z,103467.46
2019-01-04T06:53:55.687Z,103457.35
2019-01-04T06:55:50.300Z,103456.87
2019-01-04T06:56:55.208Z,103466.09
2019-01-04T06:58:00.181Z,103477.96
2019-01-04T06:59:05.162Z,103480.20
2019-01-04T07:00:10.225Z,103480.66
2019-01-04T07:01:15.205Z,103481.09
2019-01-04T07:02:20.332Z,103484.15
2019-01-04T07:03:25.219Z,103491.14
2019-01-04T07:04:30.150Z,103489.82
2019-01-04T07:05:35.049Z,103491.57
2019-01-04T07:06:39.948Z,103502.55
2019-01-04T07:07:44.845Z,103491.19
2019-01-04T07:08:49.986Z,103490.31
2019-01-04T07:09:54.976Z,103499.05
2019-01-04T07:10:59.864Z,103496.02
2019-01-04T07:12:04.884Z,103493.38
2019-01-04T07:13:09.851Z,103495.15
2019-01-04T07:14:14.746Z,103497.33
2019-01-04T07:15:19.946Z,103493.38
2019-01-04T07:16:24.924Z,103495.57
2019-01-04T07:17:30.098Z,103498.16
2019-01-04T07:18:35.190Z,103497.67
2019-01-04T07:19:40.128Z,103496.83
2019-01-04T07:20:45.108Z,103502.05
2019-01-04T07:21:50.008Z,103506.89
2019-01-04T07:22:54.903Z,103500.78
2019-01-04T07:23:59.804Z,103502.98
2019-01-04T07:25:04.913Z,103503.86
2019-01-04T07:26:09.805Z,103500.78
2019-01-04T07:27:14.775Z,103502.94
2019-01-04T07:28:19.903Z,103502.55
2019-01-04T07:29:24.969Z,103495.95
2019-01-04T07:30:29.942Z,103497.67
2019-01-04T07:31:34.851Z,103496.83
2019-01-04T07:32:39.989Z,103498.59
2019-01-04T07:33:45.074Z,103503.43
2019-01-04T07:34:49.960Z,103509.14
2019-01-04T07:35:54.902Z,103519.75
2019-01-04T07:37:00.149Z,103511.88
2019-01-04T07:38:05.110Z,103513.66
2019-01-04T07:39:10.022Z,103508.44
2019-01-04T07:40:14.909Z,103508.92
2019-01-04T07:41:19.798Z,103511.13
2019-01-04T07:42:24.692Z,103512.00
2019-01-04T07:43:29.833Z,103511.13
2019-01-04T07:44:34.773Z,103509.38
2019-01-04T07:45:40.031Z,103508.55
2019-01-04T07:46:44.923Z,103509.87
2019-01-04T07:47:50.173Z,103510.75
2019-01-04T07:48:55.068Z,103511.23
2019-01-04T07:50:00.967Z,103513.05
2019-01-04T07:51:05.858Z,103514.36
2019-01-04T07:52:10.753Z,103512.56
2019-01-04T07:53:15.880Z,103514.70
2019-01-04T07:54:21.028Z,103513.44
2019-01-04T07:55:26.382Z,103515.63
2019-01-04T07:56:31.273Z,103514.75
2019-01-04T07:57:37.121Z,103520.47
2019-01-04T07:58:42.260Z,103519.58
2019-01-04T07:59:50.041Z,103511.67
2019-01-04T08:00:54.945Z,103514.70
2019-01-04T08:01:59.848Z,103519.09
2019-01-04T08:03:18.746Z,103516.02
2019-01-04T08:04:23.630Z,103513.83
2019-01-04T08:05:29.300Z,103514.31
2019-01-04T08:06:34.208Z,103513.88
2019-01-04T08:07:39.115Z,103510.81
2019-01-04T08:08:44.243Z,103507.77
2019-01-04T08:09:49.150Z,103509.98
2019-01-04T08:10:54.107Z,103509.10
2019-01-04T08:11:59.019Z,103509.53
2019-01-04T08:13:03.982Z,103515.26
2019-01-04T08:14:08.865Z,103522.28
2019-01-04T08:15:13.828Z,103524.52
2019-01-04T08:16:18.760Z,103521.02
2019-01-04T08:17:23.741Z,103528.05
2019-01-04T08:18:28.628Z,103525.41
2019-01-04T08:19:33.510Z,103523.20
2019-01-04T08:20:38.410Z,103520.53
2019-01-04T08:21:43.292Z,103511.73
2019-01-04T08:22:48.516Z,103516.52
2019-01-04T08:23:53.664Z,103517.83
2019-01-04T08:24:58.575Z,103517.84
2019-01-04T08:26:03.544Z,103522.70
2019-01-04T08:27:08.429Z,103526.67
2019-01-04T08:28:13.578Z,103528.88
2019-01-04T08:29:18.481Z,103528.05
2019-01-04T08:30:23.945Z,103516.19
2019-01-04T08:31:28.838Z,103517.98
2019-01-04T08:32:33.760Z,103518.88
2019-01-04T08:33:38.802Z,103511.86
2019-01-04T08:34:43.932Z,103514.48
2019-01-04T08:35:48.848Z,103517.50
2019-01-04T08:36:53.736Z,103517.89
2019-01-04T08:37:58.639Z,103517.44
2019-01-04T08:39:05.094Z,103521.78
2019-01-04T08:40:11.505Z,103518.70
2019-01-04T08:41:16.391Z,103515.19
2019-01-04T08:42:21.529Z,103520.02
2019-01-04T08:43:26.455Z,103515.63
2019-01-04T08:44:31.363Z,103517.44
2019-01-04T08:45:36.274Z,103516.56
2019-01-04T08:46:41.144Z,103513.50
2019-01-04T08:47:46.055Z,103515.68
2019-01-04T08:48:51.208Z,103518.26
2019-01-04T08:49:56.369Z,103518.65
2019-01-04T08:51:01.342Z,103513.81
2019-01-04T08:52:06.302Z,103517.72
2019-01-04T08:53:11.281Z,103512.00
2019-01-04T08:54:16.266Z,103516.40
2019-01-04T08:55:26.522Z,103510.24
2019-01-04T08:56:33.836Z,103510.20
2019-01-04T08:57:38.746Z,103514.14
2019-01-04T08:58:43.711Z,103511.46
2019-01-04T08:59:49.599Z,103511.02
2019-01-04T09:00:54.534Z,103507.98
2019-01-04T09:01:59.463Z,103511.02
2019-01-04T09:03:04.432Z,103507.50
2019-01-04T09:04:09.402Z,103506.18
2019-01-04T09:05:14.308Z,103504.42
2019-01-04T09:06:19.496Z,103505.73
2019-01-04T09:07:24.730Z,103508.33
2019-01-04T09:08:29.630Z,103501.30
2019-01-04T09:09:34.775Z,103505.64
2019-01-04T09:10:39.767Z,103499.48
2019-01-04T09:11:44.943Z,103496.35
2019-01-04T09:12:49.915Z,103496.78
2019-01-04T09:13:55.215Z,103498.53
2019-01-04T09:15:00.170Z,103493.64
2019-01-04T09:16:05.320Z,103496.66
2019-01-04T09:17:10.308Z,103493.58
2019-01-04T09:18:15.336Z,103487.81
2019-01-04T09:19:20.611Z,103492.20
2019-01-04T09:20:26.085Z,103492.20
2019-01-04T09:21:31.032Z,103487.75
2019-01-04T09:22:36.104Z,103486.86
2019-01-04T09:23:41.071Z,103484.23
2019-01-04T09:24:45.967Z,103487.25
2019-01-04T09:25:51.164Z,103482.86
2019-01-04T09:26:56.143Z,103487.69
2019-01-04T09:28:01.043Z,103486.38
2019-01-04T09:29:06.093Z,103482.41
2019-01-04T09:30:13.204Z,103488.58
2019-01-04T09:31:18.362Z,103485.55
2019-01-04T09:32:23.278Z,103484.69
2019-01-04T09:33:28.208Z,103490.00
2019-01-04T09:34:33.112Z,103485.66
2019-01-04T09:35:38.000Z,103484.74
2019-01-04T09:36:43.196Z,103482.09
2019-01-04T09:37:48.401Z,103485.55
2019-01-04T09:38:53.507Z,103483.30
2019-01-04T09:39:58.400Z,103484.16
2019-01-04T09:41:28.226Z,103480.15
2019-01-04T09:42:33.111Z,103481.41
2019-01-04T09:43:38.036Z,103476.50
2019-01-04T09:44:43.889Z,103476.05
2019-01-04T09:45:48.779Z,103476.45
2019-01-04T09:46:53.664Z,103475.58
2019-01-04T09:47:58.551Z,103474.69
2019-01-04T09:49:03.600Z,103475.12
2019-01-04T09:50:09.695Z,103473.80
2019-01-04T09:51:14.577Z,103474.67
2019-01-04T09:52:19.685Z,103470.27
2019-01-04T09:53:24.572Z,103469.78
2019-01-04T09:54:29.709Z,103467.97
2019-01-04T09:55:34.918Z,103464.44
2019-01-04T09:56:39.877Z,103456.95
2019-01-04T09:57:44.820Z,103458.27
2019-01-04T09:58:49.953Z,103454.27
2019-01-04T09:59:54.872Z,103452.94
2019-01-04T10:00:59.968Z,103451.13
2019-01-04T10:02:05.836Z,103448.42
2019-01-04T10:03:10.728Z,103450.66
2019-01-04T10:04:15.755Z,103450.61
2019-01-04T10:05:20.967Z,103448.84
2019-01-04T10:06:26.133Z,103451.04
2019-01-04T10:07:31.023Z,103448.41
2019-01-04T10:08:36.066Z,103450.98
2019-01-04T10:09:41.720Z,103444.84
2019-01-04T10:10:46.840Z,103441.38
2019-01-04T10:11:51.743Z,103443.57
2019-01-04T10:12:56.903Z,103447.53
2019-01-04T10:14:01.887Z,103439.61
2019-01-04T10:15:08.611Z,103447.08
2019-01-04T10:16:13.495Z,103449.28
2019-01-04T10:17:18.660Z,103441.80
2019-01-04T10:18:23.614Z,103444.84
2019-01-04T10:19:28.460Z,103435.61
2019-01-04T10:20:33.353Z,103431.20
2019-01-04T10:21:38.257Z,103423.72
2019-01-04T10:22:43.155Z,103425.04
2019-01-04T10:23:48.051Z,103426.36
2019-01-04T10:24:53.275Z,103419.77
2019-01-04T10:25:58.196Z,103422.40
2019-01-04T10:27:03.168Z,103420.59
2019-01-04T10:28:08.086Z,103421.02
2019-01-04T10:29:13.247Z,103420.56
2019-01-04T10:30:25.007Z,103419.17
2019-01-04T10:31:29.888Z,103410.32
2019-01-04T10:32:34.849Z,103409.80
2019-01-04T10:33:39.756Z,103404.02
2019-01-04T10:34:44.649Z,103402.19
2019-01-04T10:35:49.571Z,103399.03
2019-01-04T10:36:54.491Z,103396.80
2019-01-04T10:37:59.386Z,103383.98
2019-01-04T10:39:06.944Z,103387.42
2019-01-04T10:40:12.099Z,103384.28
2019-01-04T10:41:16.995Z,103379.88
2019-01-04T10:42:21.908Z,103385.97
2019-01-04T10:43:26.813Z,103382.50
2019-01-04T10:44:31.991Z,103382.02
2019-01-04T10:45:37.201Z,103376.72
2019-01-04T10:46:42.220Z,103375.39
2019-01-04T10:47:47.175Z,103379.36
2019-01-04T10:48:52.495Z,103378.03
2019-01-04T10:49:57.460Z,103380.67
2019-01-04T10:51:02.372Z,103374.95
2019-01-04T10:52:07.335Z,103376.64
2019-01-04T10:53:12.235Z,103369.15
2019-01-04T10:54:17.204Z,103368.72
2019-01-04T10:55:22.271Z,103366.08
2019-01-04T10:56:27.178Z,103364.77
2019-01-04T10:57:32.380Z,103361.67
2019-01-04T10:58:37.276Z,103367.77
2019-01-04T10:59:42.168Z,103370.86
2019-01-04T11:00:52.183Z,103370.05
2019-01-04T11:01:57.833Z,103366.97
2019-01-04T11:03:07.683Z,103361.30
2019-01-04T11:04:13.649Z,103367.05
2019-01-04T11:05:18.545Z,103368.00
2019-01-04T11:06:23.527Z,103362.81
2019-01-04T11:07:28.433Z,103358.03
2019-01-04T11:08:33.411Z,103362.50
2019-01-04T11:09:38.383Z,103365.14
2019-01-04T11:10:43.360Z,103365.61
2019-01-04T11:11:48.607Z,103356.87
2019-01-04T11:12:53.504Z,103367.42
2019-01-04T11:13:58.416Z,103353.38
2019-01-04T11:15:03.442Z,103354.70
2019-01-04T11:16:08.330Z,103356.02
2019-01-04T11:17:13.286Z,103347.28
2019-01-04T11:18:18.184Z,103348.59
2019-01-04T11:19:23.063Z,103348.59
2019-01-04T11:20:44.866Z,103347.28
2019-01-04T11:21:49.837Z,103349.92
2019-01-04T11:22:58.473Z,103347.70
2019-01-04T11:24:53.786Z,103348.58
2019-01-04T11:26:23.057Z,103341.05
2019-01-04T11:27:37.296Z,103341.03
2019-01-04T11:28:57.769Z,103344.94
2019-01-04T11:30:27.962Z,103340.14
2019-01-04T11:31:45.059Z,103337.59
2019-01-04T11:33:09.999Z,103340.78
2019-01-04T11:34:45.770Z,103342.59
2019-01-04T11:36:23.731Z,103343.47
2019-01-04T11:37:44.031Z,103338.28
2019-01-04T11:39:13.844Z,103338.95
2019-01-04T11:40:54.887Z,103339.52
2019-01-04T11:42:41.804Z,103344.86
2019-01-04T11:44:35.282Z,103344.08
2019-01-04T11:46:05.448Z,103348.99
2019-01-04T11:47:50.193Z,103338.05
2019-01-04T11:49:10.250Z,103341.14
2019-01-04T11:50:37.679Z,103333.66
2019-01-04T11:52:03.823Z,103335.36
2019-01-04T11:53:15.989Z,103327.88
2019-01-04T11:54:27.409Z,103332.19
2019-01-04T11:55:32.383Z,103326.42
2019-01-04T11:56:37.535Z,103328.97
2019-01-04T11:57:42.679Z,103324.95
2019-01-04T11:58:47.814Z,103330.66
2019-01-04T11:59:52.927Z,103336.38
2019-01-04T12:00:58.138Z,103323.69
2019-01-04T12:02:03.230Z,103325.88
2019-01-04T12:03:08.360Z,103323.69
2019-01-04T12:04:13.256Z,103325.41
2019-01-04T12:05:18.231Z,103315.78
2019-01-04T12:06:24.355Z,103317.55
2019-01-04T12:07:29.328Z,103316.66
2019-01-04T12:08:34.245Z,103317.49
2019-01-04T12:09:39.123Z,103313.53
2019-01-04T12:10:44.028Z,103317.49
2019-01-04T12:11:48.959Z,103310.44
2019-01-04T12:12:53.856Z,103306.91
2019-01-04T12:13:59.833Z,103307.72
2019-01-04T12:15:05.064Z,103306.83
2019-01-04T12:16:09.989Z,103304.19
2019-01-04T12:17:15.194Z,103301.92
2019-01-04T12:18:20.156Z,103297.09
2019-01-04T12:19:25.635Z,103298.78
2019-01-04T12:20:30.534Z,103289.53
2019-01-04T12:21:35.435Z,103285.08
2019-01-04T12:22:40.580Z,103281.48
2019-01-04T12:23:45.573Z,103275.74
2019-01-04T12:24:50.548Z,103277.45
2019-01-04T12:25:55.446Z,103272.16
2019-01-04T12:27:00.414Z,103265.98
2019-01-04T12:28:05.321Z,103270.33
2019-01-04T12:29:10.747Z,103268.56
2019-01-04T12:30:15.655Z,103273.84
2019-01-04T12:31:20.629Z,103268.17
2019-01-04T12:32:25.596Z,103267.33
2019-01-04T12:33:30.889Z,103265.13
2019-01-04T12:34:35.776Z,103274.37
2019-01-04T12:35:40.683Z,103276.19
2019-01-04T12:36:45.603Z,103278.45
2019-01-04T12:37:50.514Z,103283.81
2019-01-04T12:38:55.409Z,103287.36
2019-01-04T12:40:00.593Z,103294.01
2019-01-04T12:41:05.820Z,103294.95
2019-01-04T12:42:10.794Z,103294.95
2019-01-04T12:43:15.680Z,103294.09
2019-01-04T12:44:20.569Z,103291.89
2019-01-04T12:45:25.463Z,103299.36
2019-01-04T12:46:30.439Z,103290.13
2019-01-04T12:47:35.352Z,103288.36
2019-01-04T12:48:40.279Z,103294.45
2019-01-04T12:49:45.257Z,103298.84
2019-01-04T12:50:50.156Z,103298.78
2019-01-04T12:51:55.077Z,103298.84
2019-01-04T12:53:00.038Z,103292.69
2019-01-04T12:54:05.072Z,103287.44